TimeMST,TemperatureF,Dew PointF,Humidity,Sea Level PressureIn,VisibilityMPH,Wind Direction,Wind SpeedMPH,Gust SpeedMPH,PrecipitationIn,Events,Conditions,WindDirDegrees,DateUTC
12:56 AM,30.0,12.0,47,29.94,-9999.0,West,11.5,-,N/A,,Unknown,270,2014-01-14 07:56:00
1:56 AM,28.9,12.0,49,29.95,-9999.0,WNW,10.4,-,N/A,,Unknown,300,2014-01-14 08:56:00
2:56 AM,37.9,14.0,38,29.99,-9999.0,North,16.1,-,N/A,,Unknown,350,2014-01-14 09:56:00
3:56 AM,30.9,12.9,47,30.02,-9999.0,NNW,10.4,-,N/A,,Unknown,330,2014-01-14 10:56:00
4:56 AM,32.0,14.0,48,30.06,-9999.0,WNW,9.2,-,N/A,,Unknown,300,2014-01-14 11:56:00
5:56 AM,39.0,16.0,39,30.08,-9999.0,NNW,13.8,-,N/A,,Unknown,340,2014-01-14 12:56:00
6:56 AM,37.9,19.0,47,30.15,-9999.0,North,16.1,-,N/A,,Unknown,360,2014-01-14 13:56:00
7:56 AM,35.1,23.0,61,30.23,-9999.0,North,16.1,26.5,N/A,,Unknown,360,2014-01-14 14:56:00
8:56 AM,36.0,26.1,67,30.28,-9999.0,North,17.3,24.2,N/A,,Unknown,360,2014-01-14 15:56:00
9:56 AM,37.9,25.0,60,30.30,-9999.0,North,18.4,26.5,N/A,,Unknown,350,2014-01-14 16:56:00
10:56 AM,39.9,23.0,51,30.30,-9999.0,North,20.7,28.8,N/A,,Unknown,350,2014-01-14 17:56:00
11:56 AM,37.9,19.9,48,30.31,-9999.0,North,24.2,31.1,N/A,,Unknown,350,2014-01-14 18:56:00
12:56 PM,37.0,19.0,48,30.34,-9999.0,North,17.3,28.8,N/A,,Unknown,350,2014-01-14 19:56:00
1:56 PM,35.1,24.1,64,30.37,-9999.0,North,23.0,-,N/A,,Unknown,350,2014-01-14 20:56:00
2:56 PM,32.0,28.0,85,30.38,-9999.0,NNW,15.0,-,0.01,,Unknown,330,2014-01-14 21:56:00
3:56 PM,33.1,19.9,59,30.40,-9999.0,NNW,16.1,26.5,N/A,,Unknown,340,2014-01-14 22:56:00
4:56 PM,33.1,19.9,59,30.40,-9999.0,NW,16.1,-,N/A,,Unknown,320,2014-01-14 23:56:00
5:56 PM,32.0,19.0,59,30.38,-9999.0,NW,12.7,-,N/A,,Unknown,310,2014-01-15 00:56:00
6:56 PM,28.9,17.1,61,30.41,-9999.0,NW,13.8,-,N/A,,Unknown,320,2014-01-15 01:56:00
7:56 PM,26.1,16.0,66,30.41,-9999.0,NNW,12.7,-,N/A,,Unknown,330,2014-01-15 02:56:00
8:56 PM,24.1,16.0,71,30.41,-9999.0,West,10.4,-,N/A,,Unknown,280,2014-01-15 03:56:00
9:56 PM,21.0,15.1,78,30.41,-9999.0,WNW,8.1,-,N/A,,Unknown,290,2014-01-15 04:56:00
10:56 PM,21.9,15.1,75,30.39,-9999.0,West,9.2,-,N/A,,Unknown,270,2014-01-15 05:56:00
11:56 PM,25.0,16.0,69,30.38,-9999.0,West,4.6,-,N/A,,Unknown,270,2014-01-15 06:56:00